createdAt,value
2023-05-21T00:00:29.082Z,88.20
2023-05-21T00:01:29.067Z,88.40
2023-05-21T00:02:29.143Z,88.20
2023-05-21T00:03:29.124Z,88.30
2023-05-21T00:04:29.070Z,88.91
2023-05-21T00:05:29.057Z,88.40
2023-05-21T00:06:29.127Z,88.40
2023-05-21T00:07:29.062Z,88.91
2023-05-21T00:08:29.024Z,88.85
2023-05-21T00:09:29.027Z,89.11
2023-05-21T00:10:29.058Z,88.91
2023-05-21T00:11:28.990Z,89.26
2023-05-21T00:12:29.015Z,89.76
2023-05-21T00:13:28.997Z,89.87
2023-05-21T00:14:28.973Z,90.07
2023-05-21T00:15:28.975Z,88.95
2023-05-21T00:16:29.058Z,89.92
2023-05-21T00:17:28.989Z,89.31
2023-05-21T00:18:28.957Z,88.71
2023-05-21T00:19:29.006Z,88.91
2023-05-21T00:20:28.934Z,89.26
2023-05-21T00:21:28.933Z,89.01
2023-05-21T00:22:28.924Z,89.26
2023-05-21T00:23:28.921Z,90.17
2023-05-21T00:24:28.901Z,89.87
2023-05-21T00:25:28.904Z,89.76
2023-05-21T00:26:28.914Z,89.87
2023-05-21T00:27:28.905Z,89.87
2023-05-21T00:28:28.880Z,90.07
2023-05-21T00:29:28.872Z,90.07
2023-05-21T00:30:28.886Z,89.46
2023-05-21T00:31:28.907Z,89.76
2023-05-21T00:32:28.878Z,90.07
2023-05-21T00:33:28.839Z,89.36
2023-05-21T00:34:28.833Z,89.76
2023-05-21T00:35:28.833Z,90.48
2023-05-21T00:36:28.848Z,90.07
2023-05-21T00:37:28.819Z,89.87
2023-05-21T00:38:28.815Z,89.87
2023-05-21T00:39:28.805Z,89.97
2023-05-21T00:40:28.810Z,89.66
2023-05-21T00:41:28.802Z,90.07
2023-05-21T00:42:28.790Z,90.11
2023-05-21T00:43:28.800Z,90.17
2023-05-21T00:44:28.764Z,90.37
2023-05-21T00:45:28.776Z,90.37
2023-05-21T00:46:28.799Z,90.11
2023-05-21T00:48:28.749Z,90.22
2023-05-21T00:49:28.732Z,90.48
2023-05-21T00:50:28.735Z,90.07
2023-05-21T00:51:28.726Z,90.37
2023-05-21T00:52:28.711Z,90.62
2023-05-21T00:53:28.702Z,90.37
2023-05-21T00:54:28.725Z,90.42
2023-05-21T00:55:28.696Z,90.27
2023-05-21T00:56:28.694Z,90.17
2023-05-21T00:57:28.687Z,90.83
2023-05-21T00:58:28.670Z,90.27
2023-05-21T00:59:28.667Z,90.07
2023-05-21T01:00:28.655Z,90.58
2023-05-21T01:01:28.743Z,90.01
2023-05-21T01:02:28.740Z,90.72
2023-05-21T01:03:28.747Z,90.11
2023-05-21T01:04:28.638Z,90.62
2023-05-21T01:05:28.637Z,90.07
2023-05-21T01:06:28.610Z,90.58
2023-05-21T01:07:28.647Z,90.22
2023-05-21T01:08:28.610Z,90.17
2023-05-21T01:09:28.611Z,90.68
2023-05-21T01:10:28.612Z,90.58
2023-05-21T01:11:28.588Z,90.72
2023-05-21T01:12:28.575Z,90.62
2023-05-21T01:13:28.579Z,90.78
2023-05-21T01:14:28.571Z,90.48
2023-05-21T01:15:28.566Z,90.83
2023-05-21T01:16:28.566Z,90.68
2023-05-21T01:17:28.587Z,90.48
2023-05-21T01:18:28.568Z,90.27
2023-05-21T01:19:28.557Z,90.17
2023-05-21T01:20:28.574Z,89.97
2023-05-21T01:21:28.517Z,90.37
2023-05-21T01:22:28.543Z,90.68
2023-05-21T01:23:28.502Z,90.68
2023-05-21T01:24:28.497Z,90.58
2023-05-21T01:25:28.509Z,91.13
2023-05-21T01:26:28.497Z,91.09
2023-05-21T01:27:28.490Z,90.88
2023-05-21T01:28:28.480Z,90.48
2023-05-21T01:29:28.474Z,90.37
2023-05-21T01:30:28.465Z,91.33
2023-05-21T01:31:28.498Z,90.99
2023-05-21T01:32:28.473Z,91.19
2023-05-21T01:33:28.518Z,91.23
2023-05-21T01:34:28.427Z,90.68
2023-05-21T01:35:28.436Z,90.72
2023-05-21T01:36:28.443Z,91.13
2023-05-21T01:37:28.427Z,90.58
2023-05-21T01:38:28.415Z,90.58
2023-05-21T01:39:28.410Z,90.48
2023-05-21T01:40:28.400Z,90.68
2023-05-21T01:41:28.436Z,90.58
2023-05-21T01:42:28.389Z,90.92
2023-05-21T01:43:28.388Z,90.68
2023-05-21T01:44:28.381Z,90.72
2023-05-21T01:45:28.365Z,90.92
2023-05-21T01:46:28.442Z,90.68
2023-05-21T01:47:28.368Z,90.78
2023-05-21T01:48:28.359Z,90.68
2023-05-21T01:49:28.349Z,91.29
2023-05-21T01:50:28.357Z,90.58
2023-05-21T01:51:28.336Z,90.88
2023-05-21T01:52:29.329Z,90.99
2023-05-21T01:53:28.317Z,91.03
2023-05-21T01:54:28.305Z,90.68
2023-05-21T01:55:28.314Z,90.62
2023-05-21T01:56:28.301Z,90.62
2023-05-21T01:57:28.277Z,90.48
2023-05-21T01:58:28.289Z,91.23
2023-05-21T01:59:28.273Z,91.13
2023-05-21T02:00:28.284Z,91.33
2023-05-21T02:01:28.285Z,90.72
2023-05-21T02:02:28.308Z,91.13
2023-05-21T02:03:28.351Z,90.72
2023-05-21T02:04:28.234Z,91.53
2023-05-21T02:05:28.229Z,91.43
2023-05-21T02:06:28.217Z,91.23
2023-05-21T02:07:28.215Z,91.74
2023-05-21T02:08:28.225Z,91.23
2023-05-21T02:09:28.199Z,91.23
2023-05-21T02:10:28.244Z,91.53
2023-05-21T02:11:28.199Z,91.07
2023-05-21T02:12:28.190Z,91.03
2023-05-21T02:13:28.191Z,91.23
2023-05-21T02:14:28.206Z,91.03
2023-05-21T02:15:28.167Z,91.23
2023-05-21T02:16:28.176Z,91.88
2023-05-21T02:17:28.171Z,92.04
2023-05-21T02:18:28.166Z,91.99
2023-05-21T02:19:28.261Z,91.78
2023-05-21T02:20:28.134Z,92.19
2023-05-21T02:21:28.138Z,91.88
2023-05-21T02:22:28.133Z,92.29
2023-05-21T02:23:28.150Z,92.60
2023-05-21T02:24:28.114Z,92.29
2023-05-21T02:25:28.104Z,92.19
2023-05-21T02:26:28.105Z,92.70
2023-05-21T02:27:28.096Z,92.90
2023-05-21T02:28:28.083Z,92.40
2023-05-21T02:29:28.103Z,92.90
2023-05-21T02:30:28.098Z,93.01
2023-05-21T02:31:28.056Z,92.80
2023-05-21T02:32:28.088Z,93.01
2023-05-21T02:33:28.075Z,92.40
2023-05-21T02:34:28.108Z,92.90
2023-05-21T02:35:28.054Z,92.80
2023-05-21T02:36:28.033Z,92.80
2023-05-21T02:37:28.024Z,92.70
2023-05-21T02:38:28.024Z,92.60
2023-05-21T02:39:28.009Z,92.90
2023-05-21T02:40:28.023Z,93.21
2023-05-21T02:41:28.009Z,92.80
2023-05-21T02:42:27.992Z,93.41
2023-05-21T02:43:27.991Z,93.10
2023-05-21T02:44:28.002Z,93.15
2023-05-21T02:45:27.979Z,93.21
2023-05-21T02:46:28.014Z,93.21
2023-05-21T02:47:27.987Z,92.80
2023-05-21T02:48:27.971Z,93.10
2023-05-21T02:49:27.987Z,92.80
2023-05-21T02:50:27.936Z,92.90
2023-05-21T02:51:27.956Z,92.90
2023-05-21T02:52:27.921Z,92.70
2023-05-21T02:53:28.924Z,92.80
2023-05-21T02:54:27.934Z,92.90
2023-05-21T02:55:27.914Z,93.31
2023-05-21T02:56:27.913Z,93.10
2023-05-21T02:57:27.903Z,92.80
2023-05-21T02:58:27.894Z,92.76
2023-05-21T02:59:27.878Z,92.49
2023-05-21T03:00:27.873Z,93.41
2023-05-21T03:01:27.932Z,93.31
2023-05-21T03:02:27.909Z,93.51
2023-05-21T03:03:28.077Z,93.41
2023-05-21T03:04:27.850Z,93.21
2023-05-21T03:05:27.866Z,93.41
2023-05-21T03:06:27.839Z,93.21
2023-05-21T03:07:27.835Z,93.01
2023-05-21T03:08:27.847Z,93.31
2023-05-21T03:09:27.825Z,93.21
2023-05-21T03:10:27.806Z,93.41
2023-05-21T03:11:27.806Z,92.90
2023-05-21T03:12:27.812Z,93.10
2023-05-21T03:13:27.823Z,93.31
2023-05-21T03:14:27.784Z,93.21
2023-05-21T03:15:27.821Z,93.31
2023-05-21T03:16:27.856Z,93.51
2023-05-21T03:17:27.776Z,93.37
2023-05-21T03:18:27.795Z,93.62
2023-05-21T03:19:27.824Z,93.62
2023-05-21T03:20:27.767Z,93.10
2023-05-21T03:21:27.754Z,92.90
2023-05-21T03:22:27.729Z,93.41
2023-05-21T03:23:27.726Z,93.41
2023-05-21T03:24:27.729Z,93.51
2023-05-21T03:25:27.712Z,93.71
2023-05-21T03:26:27.721Z,93.21
2023-05-21T03:27:27.710Z,93.71
2023-05-21T03:28:27.712Z,93.71
2023-05-21T03:29:27.689Z,94.23
2023-05-21T03:30:27.696Z,93.71
2023-05-21T03:31:27.738Z,93.71
2023-05-21T03:32:27.706Z,93.62
2023-05-21T03:33:27.678Z,93.21
2023-05-21T03:34:27.661Z,93.21
2023-05-21T03:35:27.704Z,93.51
2023-05-21T03:36:27.649Z,93.31
2023-05-21T03:37:27.651Z,93.62
2023-05-21T03:38:27.654Z,93.41
2023-05-21T03:39:27.639Z,93.62
2023-05-21T03:40:27.655Z,93.62
2023-05-21T03:41:27.621Z,93.41
2023-05-21T03:42:27.628Z,93.71
2023-05-21T03:43:27.613Z,93.62
2023-05-21T03:44:27.599Z,93.62
2023-05-21T03:45:27.628Z,93.47
2023-05-21T03:46:27.612Z,93.62
2023-05-21T03:47:28.622Z,94.18
2023-05-21T03:48:27.595Z,93.67
2023-05-21T03:49:27.571Z,93.62
2023-05-21T03:50:27.572Z,93.26
2023-05-21T03:51:27.599Z,93.71
2023-05-21T03:52:27.602Z,93.47
2023-05-21T03:53:27.546Z,93.62
2023-05-21T03:54:27.550Z,93.77
2023-05-21T03:55:27.574Z,93.57
2023-05-21T03:56:27.558Z,93.57
2023-05-21T03:57:27.523Z,93.37
2023-05-21T03:58:27.513Z,93.41
2023-05-21T03:59:27.522Z,93.47
2023-05-21T04:00:27.501Z,93.37
2023-05-21T04:01:27.534Z,93.37
2023-05-21T04:02:27.692Z,93.57
2023-05-21T04:03:27.646Z,93.47
2023-05-21T04:04:27.519Z,93.57
2023-05-21T04:05:27.472Z,93.57
2023-05-21T04:06:27.496Z,92.86
2023-05-21T04:07:27.467Z,93.06
2023-05-21T04:08:27.444Z,93.16
2023-05-21T04:09:27.451Z,92.61
2023-05-21T04:10:27.457Z,92.76
2023-05-21T04:11:27.432Z,92.71
2023-05-21T04:12:27.448Z,92.71
2023-05-21T04:13:27.412Z,92.30
2023-05-21T04:14:27.415Z,92.41
2023-05-21T04:15:27.406Z,92.82
2023-05-21T04:16:27.428Z,93.12
2023-05-21T04:17:27.491Z,92.41
2023-05-21T04:18:27.390Z,92.10
2023-05-21T04:19:27.417Z,91.86
2023-05-21T04:20:27.387Z,92.00
2023-05-21T04:21:27.375Z,92.21
2023-05-21T04:22:27.368Z,92.30
2023-05-21T04:23:27.380Z,92.51
2023-05-21T04:24:27.342Z,92.06
2023-05-21T04:25:28.335Z,92.47
2023-05-21T04:26:27.332Z,92.16
2023-05-21T04:27:27.341Z,92.06
2023-05-21T04:28:27.335Z,92.36
2023-05-21T04:29:27.302Z,91.86
2023-05-21T04:30:27.317Z,91.96
2023-05-21T04:31:27.332Z,91.75
2023-05-21T04:32:27.336Z,92.16
2023-05-21T04:33:27.310Z,91.55
2023-05-21T04:34:27.287Z,91.96
2023-05-21T04:35:27.287Z,91.75
2023-05-21T04:36:27.255Z,91.45
2023-05-21T04:37:27.266Z,91.00
2023-05-21T04:38:27.242Z,91.10
2023-05-21T04:39:27.235Z,91.20
2023-05-21T04:40:27.240Z,91.00
2023-05-21T04:41:27.225Z,90.59
2023-05-21T04:42:27.227Z,90.66
2023-05-21T04:43:27.239Z,90.75
2023-05-21T04:44:27.220Z,90.59
2023-05-21T04:45:27.186Z,90.45
2023-05-21T04:46:27.235Z,90.05
2023-05-21T04:47:27.234Z,89.94
2023-05-21T04:48:27.296Z,90.05
2023-05-21T04:49:27.168Z,89.94
2023-05-21T04:50:27.193Z,89.94
2023-05-21T04:51:27.154Z,89.94
2023-05-21T04:52:27.145Z,90.05
2023-05-21T04:53:27.132Z,90.14
2023-05-21T04:54:27.135Z,89.94
2023-05-21T04:55:27.147Z,89.94
2023-05-21T04:56:27.140Z,90.20
2023-05-21T04:57:27.108Z,89.84
2023-05-21T04:58:27.107Z,89.84
2023-05-21T04:59:27.098Z,89.39
2023-05-21T05:00:27.092Z,89.90
2023-05-21T05:01:27.325Z,89.59
2023-05-21T05:02:27.114Z,89.50
2023-05-21T05:03:27.148Z,89.39
2023-05-21T05:04:27.066Z,89.70
2023-05-21T05:05:27.059Z,89.80
2023-05-21T05:06:27.073Z,88.95
2023-05-21T05:07:27.035Z,89.55
2023-05-21T05:08:27.032Z,88.64
2023-05-21T05:09:27.034Z,88.23
2023-05-21T05:10:27.011Z,87.79
2023-05-21T05:11:27.029Z,87.99
2023-05-21T05:12:27.034Z,87.89
2023-05-21T05:13:26.999Z,87.89
2023-05-21T05:14:26.984Z,88.29
2023-05-21T05:15:26.983Z,88.20
2023-05-21T05:16:27.036Z,87.69
2023-05-21T05:17:27.019Z,87.99
2023-05-21T05:18:26.957Z,87.69
2023-05-21T05:19:27.077Z,87.54
2023-05-21T05:20:26.948Z,87.45
2023-05-21T05:21:26.953Z,87.45
2023-05-21T05:22:26.922Z,87.45
2023-05-21T05:23:26.937Z,87.54
2023-05-21T05:24:26.919Z,87.74
2023-05-21T05:25:26.913Z,86.90
2023-05-21T05:26:26.920Z,87.00
2023-05-21T05:27:26.890Z,86.59
2023-05-21T05:28:26.906Z,86.29
2023-05-21T05:29:26.881Z,85.78
2023-05-21T05:30:26.894Z,85.88
2023-05-21T05:31:26.985Z,85.74
2023-05-21T05:32:26.884Z,86.25
2023-05-21T05:33:26.836Z,85.19
2023-05-21T05:34:26.847Z,85.80
2023-05-21T05:35:26.843Z,84.99
2023-05-21T05:36:26.843Z,84.99
2023-05-21T05:37:26.823Z,83.98
2023-05-21T05:38:26.812Z,83.88
2023-05-21T05:39:26.805Z,84.39
2023-05-21T05:40:26.817Z,84.89
2023-05-21T05:41:26.807Z,84.28
2023-05-21T05:42:26.791Z,84.89
2023-05-21T05:43:26.771Z,84.19
2023-05-21T05:44:26.768Z,84.08
2023-05-21T05:45:26.798Z,84.89
2023-05-21T05:46:26.773Z,84.42
2023-05-21T05:47:26.790Z,84.69
2023-05-21T05:48:26.744Z,84.19
2023-05-21T05:49:26.726Z,84.19
2023-05-21T05:50:26.746Z,83.94
2023-05-21T05:51:26.714Z,83.68
2023-05-21T05:52:26.729Z,83.78
2023-05-21T05:53:26.696Z,83.98
2023-05-21T05:54:26.700Z,84.19
2023-05-21T05:55:26.738Z,83.98
2023-05-21T05:56:26.682Z,83.47
2023-05-21T05:57:26.693Z,83.78
2023-05-21T05:58:26.672Z,83.98
2023-05-21T05:59:26.669Z,84.04
2023-05-21T06:00:26.646Z,84.04
2023-05-21T06:01:26.668Z,84.14
2023-05-21T06:02:26.688Z,83.54
2023-05-21T06:03:26.753Z,83.60
2023-05-21T06:04:26.633Z,83.90
2023-05-21T06:05:26.643Z,83.40
2023-05-21T06:06:26.619Z,83.19
2023-05-21T06:07:26.605Z,83.50
2023-05-21T06:08:26.611Z,83.09
2023-05-21T06:09:26.612Z,82.93
2023-05-21T06:10:26.584Z,83.19
2023-05-21T06:11:26.605Z,82.93
2023-05-21T06:12:26.568Z,83.09
2023-05-21T06:13:26.572Z,83.29
2023-05-21T06:14:26.565Z,83.26
2023-05-21T06:15:26.576Z,82.55
2023-05-21T06:16:26.666Z,82.04
2023-05-21T06:17:26.588Z,82.45
2023-05-21T06:18:26.545Z,82.45
2023-05-21T06:19:26.609Z,81.90
2023-05-21T06:20:26.522Z,81.30
2023-05-21T06:21:26.538Z,81.80
2023-05-21T06:22:26.503Z,81.96
2023-05-21T06:23:26.499Z,81.56
2023-05-21T06:24:26.494Z,80.96
2023-05-21T06:25:26.506Z,80.55
2023-05-21T06:26:26.491Z,79.94
2023-05-21T06:27:26.474Z,80.25
2023-05-21T06:28:26.462Z,80.51
2023-05-21T06:29:26.483Z,79.41
2023-05-21T06:30:26.476Z,79.81
2023-05-21T06:31:26.472Z,79.71
2023-05-21T06:32:26.491Z,80.41
2023-05-21T06:33:26.550Z,79.67
2023-05-21T06:34:26.434Z,78.86
2023-05-21T06:35:26.425Z,80.07
2023-05-21T06:36:26.437Z,79.67
2023-05-21T06:37:26.815Z,78.42
2023-05-21T06:38:27.401Z,78.92
2023-05-21T06:39:26.395Z,77.86
2023-05-21T06:40:26.393Z,77.62
2023-05-21T06:41:26.384Z,77.62
2023-05-21T06:42:26.381Z,78.22
2023-05-21T06:43:26.381Z,77.38
2023-05-21T06:44:26.361Z,77.28
2023-05-21T06:45:26.381Z,76.77
2023-05-21T06:46:26.417Z,77.17
2023-05-21T06:47:26.367Z,76.94
2023-05-21T06:48:26.330Z,76.14
2023-05-21T06:49:26.324Z,76.30
2023-05-21T06:50:26.327Z,75.35
2023-05-21T06:51:27.345Z,75.76
2023-05-21T06:52:26.311Z,75.56
2023-05-21T06:53:26.335Z,75.82
2023-05-21T06:54:27.116Z,75.22
2023-05-21T06:55:27.288Z,74.72
2023-05-21T06:56:26.316Z,74.21
2023-05-21T06:57:26.287Z,74.32
2023-05-21T06:58:26.269Z,73.38
2023-05-21T06:59:26.260Z,73.41
2023-05-21T07:00:26.259Z,73.88
2023-05-21T07:01:26.379Z,73.38
2023-05-21T07:02:26.374Z,73.38
2023-05-21T07:03:26.307Z,74.65
2023-05-21T07:04:26.226Z,73.34
2023-05-21T07:05:26.235Z,73.10
2023-05-21T07:06:26.308Z,72.90
2023-05-21T07:07:26.223Z,72.40
2023-05-21T07:08:26.209Z,73.00
2023-05-21T07:09:26.221Z,73.07
2023-05-21T07:10:26.206Z,71.36
2023-05-21T07:11:26.248Z,71.56
2023-05-21T07:12:26.175Z,70.73
2023-05-21T07:13:26.178Z,71.96
2023-05-21T07:14:26.456Z,71.06
2023-05-21T07:15:26.162Z,71.83
2023-05-21T07:16:26.179Z,68.73
2023-05-21T07:17:26.161Z,67.99
2023-05-21T07:18:26.134Z,69.39
2023-05-21T07:19:26.185Z,69.36
2023-05-21T07:20:26.159Z,69.26
2023-05-21T07:21:26.115Z,67.66
2023-05-21T07:22:28.066Z,67.05
2023-05-21T07:23:27.116Z,65.95
2023-05-21T07:24:26.080Z,67.66
2023-05-21T07:25:26.118Z,68.79
2023-05-21T07:26:26.085Z,68.96
2023-05-21T07:27:26.430Z,68.76
2023-05-21T07:28:26.062Z,67.66
2023-05-21T07:29:26.058Z,66.32
2023-05-21T07:30:26.056Z,66.63
2023-05-21T07:31:26.110Z,67.43
2023-05-21T07:32:26.042Z,67.52
2023-05-21T07:33:26.031Z,67.69
2023-05-21T07:34:26.049Z,66.39
2023-05-21T07:35:26.021Z,66.06
2023-05-21T07:36:26.010Z,67.36
2023-05-21T07:37:26.049Z,67.06
2023-05-21T07:38:26.007Z,66.96
2023-05-21T07:39:25.986Z,66.09
2023-05-21T07:40:25.982Z,65.90
2023-05-21T07:41:25.999Z,65.56
2023-05-21T07:42:25.968Z,64.24
2023-05-21T07:43:25.960Z,63.71
2023-05-21T07:44:25.963Z,62.98
2023-05-21T07:45:25.955Z,62.35
2023-05-21T07:46:25.987Z,61.96
2023-05-21T07:47:26.034Z,61.13
2023-05-21T07:48:25.932Z,61.83
2023-05-21T07:49:25.928Z,61.00
2023-05-21T07:50:25.917Z,60.50
2023-05-21T07:51:25.962Z,61.10
2023-05-21T07:52:25.927Z,61.00
2023-05-21T07:53:25.893Z,60.38
2023-05-21T07:54:25.897Z,60.80
2023-05-21T07:55:25.916Z,59.68
2023-05-21T07:56:25.910Z,59.95
2023-05-21T07:57:25.879Z,58.56
2023-05-21T07:58:25.868Z,59.61
2023-05-21T07:59:25.873Z,59.61
2023-05-21T08:00:25.857Z,60.40
2023-05-21T08:01:25.894Z,59.74
2023-05-21T08:02:25.966Z,60.70
2023-05-21T08:03:25.923Z,60.00
2023-05-21T08:04:26.017Z,60.40
2023-05-21T08:05:25.852Z,59.68
2023-05-21T08:06:25.827Z,59.08
2023-05-21T08:07:25.822Z,59.25
2023-05-21T08:08:25.815Z,59.05
2023-05-21T08:09:25.824Z,58.80
2023-05-21T08:10:25.803Z,56.76
2023-05-21T08:11:26.433Z,56.90
2023-05-21T08:12:25.800Z,56.25
2023-05-21T08:13:26.010Z,54.74
2023-05-21T08:14:25.779Z,54.64
2023-05-21T08:15:25.777Z,52.73
2023-05-21T08:16:25.843Z,54.81
2023-05-21T08:17:25.789Z,53.03
2023-05-21T08:18:25.868Z,53.55
2023-05-21T08:19:25.804Z,53.13
2023-05-21T08:20:25.732Z,53.85
2023-05-21T08:21:25.726Z,53.45
2023-05-21T08:22:25.728Z,52.69
2023-05-21T08:23:25.717Z,52.98
2023-05-21T08:24:25.707Z,53.38
2023-05-21T08:25:25.697Z,54.27
2023-05-21T08:26:25.793Z,54.20
2023-05-21T08:27:25.855Z,53.90
2023-05-21T08:28:25.684Z,52.91
2023-05-21T08:29:25.674Z,54.82
2023-05-21T08:30:25.691Z,54.60
2023-05-21T08:31:25.688Z,54.89
2023-05-21T08:32:25.663Z,54.99
2023-05-21T08:33:25.671Z,54.07
2023-05-21T08:34:25.639Z,54.10
2023-05-21T08:35:25.634Z,54.37
2023-05-21T08:36:25.625Z,54.17
2023-05-21T08:37:25.618Z,54.05
2023-05-21T08:38:26.989Z,52.96
2023-05-21T08:39:25.614Z,52.96
2023-05-21T08:40:25.588Z,52.98
2023-05-21T08:41:25.589Z,55.16
2023-05-21T08:42:36.335Z,54.30
2023-05-21T08:43:27.599Z,54.49
2023-05-21T08:44:25.580Z,54.07
2023-05-21T08:45:25.575Z,54.54
2023-05-21T08:46:25.635Z,53.92
2023-05-21T08:47:25.578Z,52.24
2023-05-21T08:48:25.566Z,52.54
2023-05-21T08:49:27.163Z,53.00
2023-05-21T08:50:26.547Z,51.82
2023-05-21T08:51:25.545Z,51.32
2023-05-21T08:52:25.524Z,52.14
2023-05-21T08:53:28.729Z,52.44
2023-05-21T08:54:26.510Z,52.14
2023-05-21T08:55:25.515Z,51.77
2023-05-21T08:56:25.503Z,52.98
2023-05-21T08:57:25.510Z,53.18
2023-05-21T08:58:25.501Z,53.83
2023-05-21T08:59:25.489Z,54.82
2023-05-21T09:00:25.494Z,54.60
2023-05-21T09:01:26.651Z,54.77
2023-05-21T09:02:26.536Z,54.67
2023-05-21T09:03:25.518Z,53.78
2023-05-21T09:04:25.498Z,53.97
2023-05-21T09:05:25.449Z,53.65
2023-05-21T09:06:25.426Z,53.06
2023-05-21T09:07:25.426Z,53.95
2023-05-21T09:08:25.425Z,52.46
2023-05-21T09:09:25.418Z,51.67
2023-05-21T09:10:25.412Z,52.86
2023-05-21T09:11:25.405Z,53.88
2023-05-21T09:12:25.412Z,54.24
2023-05-21T09:13:25.400Z,52.17
2023-05-21T09:14:25.509Z,53.16
2023-05-21T09:15:25.424Z,54.32
2023-05-21T09:16:25.447Z,53.11
2023-05-21T09:17:25.440Z,53.11
2023-05-21T09:18:25.366Z,51.57
2023-05-21T09:19:25.410Z,52.78
2023-05-21T09:20:25.378Z,51.57
2023-05-21T09:21:25.360Z,51.30
2023-05-21T09:22:25.329Z,51.30
2023-05-21T09:23:25.340Z,52.09
2023-05-21T09:24:25.342Z,51.59
2023-05-21T09:25:25.352Z,51.99
2023-05-21T09:26:25.329Z,51.28
2023-05-21T09:27:25.301Z,50.61
2023-05-21T09:28:25.300Z,51.59
2023-05-21T09:29:25.292Z,52.39
2023-05-21T09:30:35.714Z,51.67
2023-05-21T09:31:27.418Z,51.77
2023-05-21T09:32:25.312Z,51.18
2023-05-21T09:33:25.259Z,50.59
2023-05-21T09:34:25.290Z,51.07
2023-05-21T09:35:25.256Z,51.40
2023-05-21T09:36:25.253Z,50.98
2023-05-21T09:37:27.639Z,51.20
2023-05-21T09:38:26.259Z,50.88
2023-05-21T09:39:25.240Z,50.90
2023-05-21T09:40:25.246Z,50.90
2023-05-21T09:41:25.241Z,52.24
2023-05-21T09:42:25.210Z,53.33
2023-05-21T09:43:25.210Z,52.41
2023-05-21T09:44:25.209Z,52.41
2023-05-21T09:45:25.485Z,50.81
2023-05-21T09:46:25.204Z,52.41
2023-05-21T09:47:25.206Z,52.39
2023-05-21T09:48:25.189Z,51.59
2023-05-21T09:49:25.237Z,51.50
2023-05-21T09:50:25.172Z,52.39
2023-05-21T09:51:25.164Z,51.37
2023-05-21T09:52:25.150Z,51.25
2023-05-21T09:53:25.174Z,51.64
2023-05-21T09:54:25.170Z,49.96
2023-05-21T09:55:25.141Z,50.95
2023-05-21T09:56:25.125Z,49.94
2023-05-21T09:57:25.959Z,49.74
2023-05-21T09:58:25.123Z,50.51
2023-05-21T09:59:25.147Z,49.62
2023-05-21T10:00:25.124Z,49.60
2023-05-21T10:01:25.222Z,49.40
2023-05-21T10:02:25.118Z,49.50
2023-05-21T10:03:25.098Z,49.43
2023-05-21T10:05:25.088Z,49.25
2023-05-21T10:06:25.071Z,51.03
2023-05-21T10:07:25.068Z,50.73
2023-05-21T10:08:25.062Z,50.90
2023-05-21T10:09:25.084Z,50.24
2023-05-21T10:10:25.088Z,50.12
2023-05-21T10:11:25.036Z,49.43
2023-05-21T10:12:25.031Z,49.60
2023-05-21T10:13:25.038Z,48.29
2023-05-21T10:14:25.043Z,49.97
2023-05-21T10:15:25.024Z,47.97
2023-05-21T10:16:25.042Z,48.83
2023-05-21T10:17:25.040Z,47.53
2023-05-21T10:18:24.989Z,47.31
2023-05-21T10:19:25.762Z,46.92
2023-05-21T10:20:24.999Z,46.82
2023-05-21T10:21:24.984Z,47.61
2023-05-21T10:22:24.968Z,48.13
2023-05-21T10:23:24.956Z,47.63
2023-05-21T10:24:24.961Z,46.87
2023-05-21T10:25:24.979Z,46.87
2023-05-21T10:26:24.945Z,47.36
2023-05-21T10:27:24.944Z,48.13
2023-05-21T10:28:24.924Z,49.13
2023-05-21T10:29:24.925Z,49.01
2023-05-21T10:30:24.919Z,47.73
2023-05-21T10:31:25.272Z,47.63
2023-05-21T10:32:25.021Z,48.22
2023-05-21T10:33:24.958Z,48.30
2023-05-21T10:34:24.891Z,47.61
2023-05-21T10:35:24.900Z,46.94
2023-05-21T10:36:24.885Z,47.73
2023-05-21T10:37:24.870Z,46.84
2023-05-21T10:38:24.903Z,47.41
2023-05-21T10:39:24.863Z,47.41
2023-05-21T10:40:24.852Z,47.41
2023-05-21T10:41:24.885Z,46.75
2023-05-21T10:42:24.862Z,47.31
2023-05-21T10:43:24.847Z,46.80
2023-05-21T10:44:24.850Z,46.28
2023-05-21T10:45:24.843Z,46.14
2023-05-21T10:46:24.853Z,45.36
2023-05-21T10:47:24.824Z,45.87
2023-05-21T10:48:24.818Z,45.40
2023-05-21T10:49:24.815Z,46.56
2023-05-21T10:50:24.796Z,46.24
2023-05-21T10:51:24.799Z,45.55
2023-05-21T10:52:24.802Z,46.06
2023-05-21T10:53:24.797Z,46.85
2023-05-21T10:54:24.794Z,46.09
2023-05-21T10:55:24.768Z,46.48
2023-05-21T10:56:24.771Z,46.36
2023-05-21T10:57:24.759Z,46.34
2023-05-21T10:58:24.753Z,45.28
2023-05-21T10:59:24.770Z,46.36
2023-05-21T11:00:24.737Z,46.56
2023-05-21T11:01:24.827Z,45.48
2023-05-21T11:02:24.766Z,46.17
2023-05-21T11:03:24.939Z,46.36
2023-05-21T11:04:24.725Z,45.65
2023-05-21T11:05:24.695Z,45.77
2023-05-21T11:06:24.716Z,46.34
2023-05-21T11:07:24.738Z,45.34
2023-05-21T11:08:24.683Z,46.22
2023-05-21T11:09:24.683Z,45.70
2023-05-21T11:10:24.693Z,44.90
2023-05-21T11:11:24.667Z,44.19
2023-05-21T11:12:24.663Z,43.99
2023-05-21T11:13:24.680Z,43.09
2023-05-21T11:14:24.656Z,44.17
2023-05-21T11:15:24.730Z,44.17
2023-05-21T11:16:24.689Z,43.77
2023-05-21T11:17:24.650Z,44.07
2023-05-21T11:18:24.616Z,43.98
2023-05-21T11:19:24.643Z,43.85
2023-05-21T11:20:24.623Z,44.23
2023-05-21T11:21:24.600Z,43.73
2023-05-21T11:22:24.615Z,42.93
2023-05-21T11:23:24.591Z,44.30
2023-05-21T11:24:24.579Z,43.03
2023-05-21T11:25:24.584Z,42.56
2023-05-21T11:26:24.571Z,42.76
2023-05-21T11:27:24.559Z,42.46
2023-05-21T11:28:24.554Z,42.68
2023-05-21T11:29:24.558Z,42.66
2023-05-21T11:30:24.555Z,42.46
2023-05-21T11:31:24.577Z,41.97
2023-05-21T11:32:24.551Z,41.68
2023-05-21T11:33:24.532Z,41.68
2023-05-21T11:34:24.531Z,41.50
2023-05-21T11:35:24.518Z,42.31
2023-05-21T11:36:24.539Z,43.29
2023-05-21T11:37:24.515Z,42.99
2023-05-21T11:38:24.495Z,42.33
2023-05-21T11:39:24.492Z,44.19
2023-05-21T11:40:24.489Z,43.41
2023-05-21T11:41:24.483Z,43.80
2023-05-21T11:42:24.476Z,42.60
2023-05-21T11:43:24.471Z,43.99
2023-05-21T11:44:24.463Z,42.91
2023-05-21T11:45:24.481Z,43.70
2023-05-21T11:46:24.497Z,43.85
2023-05-21T11:47:24.511Z,42.31
2023-05-21T11:48:26.886Z,42.29
2023-05-21T11:49:24.431Z,42.99
2023-05-21T11:50:24.422Z,44.54
2023-05-21T11:51:24.423Z,43.76
2023-05-21T11:52:24.420Z,43.95
2023-05-21T11:53:24.458Z,43.44
2023-05-21T11:54:24.506Z,44.30
2023-05-21T11:55:24.403Z,42.40
2023-05-21T11:56:24.466Z,41.33
2023-05-21T11:57:24.398Z,41.52
2023-05-21T11:58:24.393Z,41.52
2023-05-21T11:59:24.403Z,41.02
2023-05-21T12:00:24.385Z,39.23
2023-05-21T12:01:24.356Z,37.57
2023-05-21T12:02:25.359Z,38.75
2023-05-21T12:03:24.444Z,39.14
2023-05-21T12:04:24.377Z,39.62
2023-05-21T12:05:24.366Z,38.75
2023-05-21T12:06:24.385Z,39.53
2023-05-21T12:07:24.333Z,40.25
2023-05-21T12:08:24.312Z,42.35
2023-05-21T12:09:24.323Z,42.05
2023-05-21T12:10:24.539Z,42.17
2023-05-21T12:11:24.291Z,42.74
2023-05-21T12:12:24.305Z,40.68
2023-05-21T12:13:24.294Z,41.93
2023-05-21T12:14:24.342Z,41.33
2023-05-21T12:15:24.362Z,40.94
2023-05-21T12:16:24.319Z,41.62
2023-05-21T12:17:24.310Z,40.35
2023-05-21T12:18:24.259Z,41.05
2023-05-21T12:19:24.322Z,41.25
2023-05-21T12:20:24.293Z,41.17
2023-05-21T12:21:24.252Z,41.07
2023-05-21T12:22:24.247Z,41.56
2023-05-21T12:23:24.237Z,41.05
2023-05-21T12:24:24.244Z,40.88
2023-05-21T12:25:24.227Z,41.86
2023-05-21T12:26:24.236Z,41.36
2023-05-21T12:27:24.216Z,40.97
2023-05-21T12:28:24.209Z,41.05
2023-05-21T12:29:24.209Z,40.25
2023-05-21T12:30:24.208Z,39.08
2023-05-21T12:31:24.215Z,39.69
2023-05-21T12:32:24.203Z,41.25
2023-05-21T12:33:25.263Z,40.64
2023-05-21T12:34:25.169Z,40.25
2023-05-21T12:35:24.685Z,40.53
2023-05-21T12:36:24.156Z,39.65
2023-05-21T12:37:24.162Z,39.26
2023-05-21T12:38:24.392Z,39.75
2023-05-21T12:39:24.153Z,39.55
2023-05-21T12:40:24.147Z,40.74
2023-05-21T12:41:24.131Z,40.76
2023-05-21T12:42:24.139Z,41.46
2023-05-21T12:43:24.147Z,42.05
2023-05-21T12:44:24.116Z,41.49
2023-05-21T12:45:24.123Z,41.78
2023-05-21T12:46:24.121Z,41.78
2023-05-21T12:47:24.114Z,42.60
2023-05-21T12:48:24.127Z,42.33
2023-05-21T12:49:24.090Z,42.99
2023-05-21T12:50:24.104Z,42.60
2023-05-21T12:51:24.083Z,42.60
2023-05-21T12:52:24.082Z,42.90
2023-05-21T12:53:24.098Z,42.80
2023-05-21T12:54:24.073Z,42.11